sensor_id;sensor_type;location;lat;lon;timestamp;pressure;altitude;pressure_sealevel;temperature;humidity
55301;BME280;58302;51.446;-2.000;2023-04-25T00:02:04;100790.44;;;3.92;100.00
55301;BME280;58302;51.446;-2.000;2023-04-25T00:04:30;100790.84;;;3.96;100.00
55301;BME280;58302;51.446;-2.000;2023-04-25T00:06:59;100795.84;;;3.86;100.00
55301;BME280;58302;51.446;-2.000;2023-04-25T00:09:29;100792.97;;;3.81;100.00
55301;BME280;58302;51.446;-2.000;2023-04-25T00:11:55;100801.84;;;3.81;100.00
55301;BME280;58302;51.446;-2.000;2023-04-25T00:14:21;100806.78;;;3.84;100.00
55301;BME280;58302;51.446;-2.000;2023-04-25T00:16:48;100803.69;;;3.87;100.00
55301;BME280;58302;51.446;-2.000;2023-04-25T00:19:14;100810.72;;;3.88;100.00
55301;BME280;58302;51.446;-2.000;2023-04-25T00:21:40;100810.53;;;3.83;100.00
55301;BME280;58302;51.446;-2.000;2023-04-25T00:24:07;100819.41;;;3.84;100.00
55301;BME280;58302;51.446;-2.000;2023-04-25T00:26:34;100816.34;;;3.80;100.00
55301;BME280;58302;51.446;-2.000;2023-04-25T00:29:01;100819.22;;;3.79;100.00
55301;BME280;58302;51.446;-2.000;2023-04-25T00:31:27;100822.75;;;3.79;100.00
55301;BME280;58302;51.446;-2.000;2023-04-25T00:33:54;100832.88;;;3.77;100.00
55301;BME280;58302;51.446;-2.000;2023-04-25T00:36:20;100824.84;;;3.70;100.00
55301;BME280;58302;51.446;-2.000;2023-04-25T00:38:47;100828.16;;;3.59;100.00
55301;BME280;58302;51.446;-2.000;2023-04-25T00:41:13;100826.94;;;3.49;100.00
55301;BME280;58302;51.446;-2.000;2023-04-25T00:43:40;100829.00;;;3.40;100.00
55301;BME280;58302;51.446;-2.000;2023-04-25T00:46:07;100824.91;;;3.31;100.00
55301;BME280;58302;51.446;-2.000;2023-04-25T00:48:33;100833.16;;;3.29;100.00
55301;BME280;58302;51.446;-2.000;2023-04-25T00:50:59;100833.59;;;3.26;100.00
55301;BME280;58302;51.446;-2.000;2023-04-25T00:53:27;100828.22;;;3.20;100.00
55301;BME280;58302;51.446;-2.000;2023-04-25T00:55:53;100831.91;;;3.18;100.00
55301;BME280;58302;51.446;-2.000;2023-04-25T00:58:21;100828.84;;;3.15;100.00
55301;BME280;58302;51.446;-2.000;2023-04-25T01:00:48;100834.81;;;3.17;100.00
55301;BME280;58302;51.446;-2.000;2023-04-25T01:03:16;100843.50;;;3.26;100.00
55301;BME280;58302;51.446;-2.000;2023-04-25T01:05:43;100843.50;;;3.26;100.00
55301;BME280;58302;51.446;-2.000;2023-04-25T01:08:09;100844.53;;;3.31;100.00
55301;BME280;58302;51.446;-2.000;2023-04-25T01:10:36;100849.28;;;3.29;100.00
55301;BME280;58302;51.446;-2.000;2023-04-25T01:13:03;100852.19;;;3.28;100.00
55301;BME280;58302;51.446;-2.000;2023-04-25T01:15:29;100852.19;;;3.21;100.00
55301;BME280;58302;51.446;-2.000;2023-04-25T01:17:55;100856.31;;;3.10;100.00
55301;BME280;58302;51.446;-2.000;2023-04-25T01:20:22;100860.44;;;3.06;100.00
55301;BME280;58302;51.446;-2.000;2023-04-25T01:22:50;100857.13;;;2.98;100.00
55301;BME280;58302;51.446;-2.000;2023-04-25T01:25:18;100852.38;;;2.93;100.00
55301;BME280;58302;51.446;-2.000;2023-04-25T01:27:45;100850.09;;;2.83;100.00
55301;BME280;58302;51.446;-2.000;2023-04-25T01:30:11;100853.16;;;2.74;100.00
55301;BME280;58302;51.446;-2.000;2023-04-25T01:32:37;100851.72;;;2.64;100.00
55301;BME280;58302;51.446;-2.000;2023-04-25T01:35:08;100856.22;;;2.57;100.00
55301;BME280;58302;51.446;-2.000;2023-04-25T01:37:39;100862.63;;;2.50;100.00
55301;BME280;58302;51.446;-2.000;2023-04-25T01:40:07;100860.75;;;2.44;100.00
55301;BME280;58302;51.446;-2.000;2023-04-25T01:42:34;100859.91;;;2.43;100.00
55301;BME280;58302;51.446;-2.000;2023-04-25T01:45:02;100862.78;;;2.42;100.00
55301;BME280;58302;51.446;-2.000;2023-04-25T01:47:28;100868.56;;;2.38;100.00
55301;BME280;58302;51.446;-2.000;2023-04-25T01:49:54;100868.56;;;2.32;100.00
55301;BME280;58302;51.446;-2.000;2023-04-25T01:52:20;100875.53;;;2.26;100.00
55301;BME280;58302;51.446;-2.000;2023-04-25T01:54:47;100870.34;;;2.18;100.00
55301;BME280;58302;51.446;-2.000;2023-04-25T01:57:13;100871.13;;;2.12;100.00
55301;BME280;58302;51.446;-2.000;2023-04-25T01:59:40;100876.06;;;2.08;100.00
55301;BME280;58302;51.446;-2.000;2023-04-25T02:02:06;100865.34;;;2.08;100.00
55301;BME280;58302;51.446;-2.000;2023-04-25T02:04:32;100866.72;;;1.98;100.00
55301;BME280;58302;51.446;-2.000;2023-04-25T02:06:58;100875.97;;;1.89;100.00
55301;BME280;58302;51.446;-2.000;2023-04-25T02:09:24;100871.66;;;1.88;100.00
55301;BME280;58302;51.446;-2.000;2023-04-25T02:11:50;100873.25;;;1.82;100.00
55301;BME280;58302;51.446;-2.000;2023-04-25T02:14:16;100876.53;;;1.77;100.00
55301;BME280;58302;51.446;-2.000;2023-04-25T02:16:42;100869.66;;;1.68;100.00
55301;BME280;58302;51.446;-2.000;2023-04-25T02:19:10;100867.16;;;1.60;100.00
55301;BME280;58302;51.446;-2.000;2023-04-25T02:21:36;100869.63;;;1.62;100.00
55301;BME280;58302;51.446;-2.000;2023-04-25T02:24:03;100869.66;;;1.68;100.00
55301;BME280;58302;51.446;-2.000;2023-04-25T02:26:29;100870.66;;;1.61;100.00
55301;BME280;58302;51.446;-2.000;2023-04-25T02:28:56;100872.19;;;1.48;100.00
55301;BME280;58302;51.446;-2.000;2023-04-25T02:31:22;100872.81;;;1.44;100.00
55301;BME280;58302;51.446;-2.000;2023-04-25T02:33:49;100875.31;;;1.52;100.00
55301;BME280;58302;51.446;-2.000;2023-04-25T02:36:15;100875.50;;;1.44;100.00
55301;BME280;58302;51.446;-2.000;2023-04-25T02:38:41;100871.50;;;1.33;100.00
55301;BME280;58302;51.446;-2.000;2023-04-25T02:41:07;100857.97;;;1.20;100.00
55301;BME280;58302;51.446;-2.000;2023-04-25T02:43:33;100859.34;;;1.09;100.00
55301;BME280;58302;51.446;-2.000;2023-04-25T02:45:59;100866.84;;;0.99;100.00
55301;BME280;58302;51.446;-2.000;2023-04-25T02:48:25;100861.41;;;0.86;100.00
55301;BME280;58302;51.446;-2.000;2023-04-25T02:50:51;100866.44;;;0.74;100.00
55301;BME280;58302;51.446;-2.000;2023-04-25T02:53:17;100863.03;;;0.65;100.00
55301;BME280;58302;51.446;-2.000;2023-04-25T02:55:43;100867.41;;;0.66;100.00
55301;BME280;58302;51.446;-2.000;2023-04-25T02:58:09;100866.69;;;0.58;100.00
55301;BME280;58302;51.446;-2.000;2023-04-25T03:00:35;100873.91;;;0.42;100.00
55301;BME280;58302;51.446;-2.000;2023-04-25T03:03:01;100881.78;;;0.29;100.00
55301;BME280;58302;51.446;-2.000;2023-04-25T03:05:27;100884.19;;;0.24;100.00
55301;BME280;58302;51.446;-2.000;2023-04-25T03:07:53;100881.59;;;0.16;100.00
55301;BME280;58302;51.446;-2.000;2023-04-25T03:10:19;100884.94;;;0.03;100.00
55301;BME280;58302;51.446;-2.000;2023-04-25T03:12:45;100882.28;;;-0.12;100.00
55301;BME280;58302;51.446;-2.000;2023-04-25T03:15:11;100889.19;;;-0.32;100.00
55301;BME280;58302;51.446;-2.000;2023-04-25T03:17:37;100895.06;;;-0.51;100.00
55301;BME280;58302;51.446;-2.000;2023-04-25T03:20:03;100894.94;;;-0.58;100.00
55301;BME280;58302;51.446;-2.000;2023-04-25T03:22:29;100891.34;;;-0.65;100.00
55301;BME280;58302;51.446;-2.000;2023-04-25T03:24:55;100903.41;;;-0.69;100.00
55301;BME280;58302;51.446;-2.000;2023-04-25T03:27:21;100906.31;;;-0.79;100.00
55301;BME280;58302;51.446;-2.000;2023-04-25T03:29:47;100912.06;;;-0.90;100.00
55301;BME280;58302;51.446;-2.000;2023-04-25T03:32:13;100913.09;;;-0.91;100.00
55301;BME280;58302;51.446;-2.000;2023-04-25T03:34:39;100915.56;;;-0.90;100.00
55301;BME280;58302;51.446;-2.000;2023-04-25T03:37:05;100907.13;;;-0.93;100.00
55301;BME280;58302;51.446;-2.000;2023-04-25T03:39:31;100913.81;;;-0.97;100.00
55301;BME280;58302;51.446;-2.000;2023-04-25T03:41:57;100905.03;;;-1.06;100.00
55301;BME280;58302;51.446;-2.000;2023-04-25T03:44:23;100911.44;;;-1.15;100.00
55301;BME280;58302;51.446;-2.000;2023-04-25T03:46:50;100903.66;;;-1.25;100.00
55301;BME280;58302;51.446;-2.000;2023-04-25T03:49:16;100920.53;;;-1.33;100.00
55301;BME280;58302;51.446;-2.000;2023-04-25T03:51:42;100930.22;;;-1.09;100.00
55301;BME280;58302;51.446;-2.000;2023-04-25T03:54:08;100931.56;;;-0.90;100.00
55301;BME280;58302;51.446;-2.000;2023-04-25T03:56:34;100940.50;;;-0.83;100.00
55301;BME280;58302;51.446;-2.000;2023-04-25T03:59:00;100936.16;;;-0.75;100.00
55301;BME280;58302;51.446;-2.000;2023-04-25T04:01:26;100935.34;;;-0.61;100.00
55301;BME280;58302;51.446;-2.000;2023-04-25T04:03:52;100945.22;;;-0.47;100.00
55301;BME280;58302;51.446;-2.000;2023-04-25T04:06:18;100953.00;;;-0.37;100.00
55301;BME280;58302;51.446;-2.000;2023-04-25T04:08:46;100960.09;;;-0.30;100.00
55301;BME280;58302;51.446;-2.000;2023-04-25T04:11:12;100956.84;;;-0.40;100.00
55301;BME280;58302;51.446;-2.000;2023-04-25T04:13:38;100960.66;;;-0.57;100.00
55301;BME280;58302;51.446;-2.000;2023-04-25T04:16:04;100963.84;;;-0.76;100.00
55301;BME280;58302;51.446;-2.000;2023-04-25T04:18:30;100969.34;;;-1.01;100.00
55301;BME280;58302;51.446;-2.000;2023-04-25T04:20:56;100978.44;;;-1.18;100.00
55301;BME280;58302;51.446;-2.000;2023-04-25T04:23:23;100973.44;;;-1.21;100.00
55301;BME280;58302;51.446;-2.000;2023-04-25T04:25:50;100967.06;;;-1.12;100.00
55301;BME280;58302;51.446;-2.000;2023-04-25T04:28:16;100979.06;;;-1.08;100.00
55301;BME280;58302;51.446;-2.000;2023-04-25T04:30:42;100971.59;;;-1.13;100.00
55301;BME280;58302;51.446;-2.000;2023-04-25T04:33:08;100978.09;;;-1.15;100.00
55301;BME280;58302;51.446;-2.000;2023-04-25T04:35:34;100982.13;;;-1.19;100.00
55301;BME280;58302;51.446;-2.000;2023-04-25T04:38:00;100987.34;;;-1.26;100.00
55301;BME280;58302;51.446;-2.000;2023-04-25T04:40:26;100985.00;;;-1.29;100.00
55301;BME280;58302;51.446;-2.000;2023-04-25T04:42:52;100983.03;;;-1.35;100.00
55301;BME280;58302;51.446;-2.000;2023-04-25T04:45:18;100990.53;;;-1.39;100.00
55301;BME280;58302;51.446;-2.000;2023-04-25T04:47:44;100991.06;;;-1.43;100.00
55301;BME280;58302;51.446;-2.000;2023-04-25T04:50:11;100992.91;;;-1.44;100.00
55301;BME280;58302;51.446;-2.000;2023-04-25T04:52:37;101005.06;;;-1.41;100.00
55301;BME280;58302;51.446;-2.000;2023-04-25T04:55:04;100993.38;;;-1.40;100.00
55301;BME280;58302;51.446;-2.000;2023-04-25T04:57:31;101001.88;;;-1.37;100.00
55301;BME280;58302;51.446;-2.000;2023-04-25T05:00:00;101001.22;;;-1.39;100.00
55301;BME280;58302;51.446;-2.000;2023-04-25T05:02:26;101009.88;;;-1.37;100.00
55301;BME280;58302;51.446;-2.000;2023-04-25T05:04:53;101008.88;;;-1.36;100.00
55301;BME280;58302;51.446;-2.000;2023-04-25T05:07:19;101004.19;;;-1.34;100.00
55301;BME280;58302;51.446;-2.000;2023-04-25T05:09:44;101004.00;;;-1.32;100.00
55301;BME280;58302;51.446;-2.000;2023-04-25T05:12:10;101017.50;;;-1.34;100.00
55301;BME280;58302;51.446;-2.000;2023-04-25T05:14:37;101014.50;;;-1.30;100.00
55301;BME280;58302;51.446;-2.000;2023-04-25T05:17:03;101021.63;;;-1.23;100.00
55301;BME280;58302;51.446;-2.000;2023-04-25T05:19:34;101013.81;;;-1.24;100.00
55301;BME280;58302;51.446;-2.000;2023-04-25T05:22:00;101013.50;;;-1.29;100.00
55301;BME280;58302;51.446;-2.000;2023-04-25T05:24:26;101020.53;;;-1.37;100.00
55301;BME280;58302;51.446;-2.000;2023-04-25T05:26:52;101023.03;;;-1.43;100.00
55301;BME280;58302;51.446;-2.000;2023-04-25T05:29:18;101034.91;;;-1.46;100.00
55301;BME280;58302;51.446;-2.000;2023-04-25T05:31:44;101035.53;;;-1.36;100.00
55301;BME280;58302;51.446;-2.000;2023-04-25T05:34:10;101044.19;;;-1.34;100.00
55301;BME280;58302;51.446;-2.000;2023-04-25T05:36:36;101033.50;;;-1.34;100.00
55301;BME280;58302;51.446;-2.000;2023-04-25T05:39:02;101036.34;;;-1.35;100.00
55301;BME280;58302;51.446;-2.000;2023-04-25T05:41:30;101037.69;;;-1.31;100.00
55301;BME280;58302;51.446;-2.000;2023-04-25T05:43:55;101037.69;;;-1.31;100.00
55301;BME280;58302;51.446;-2.000;2023-04-25T05:46:21;101044.97;;;-1.25;100.00
55301;BME280;58302;51.446;-2.000;2023-04-25T05:48:47;101049.81;;;-1.20;100.00
55301;BME280;58302;51.446;-2.000;2023-04-25T05:51:14;101056.72;;;-1.03;100.00
55301;BME280;58302;51.446;-2.000;2023-04-25T05:53:39;101052.97;;;-0.94;100.00
55301;BME280;58302;51.446;-2.000;2023-04-25T05:56:05;101056.97;;;-0.90;100.00
55301;BME280;58302;51.446;-2.000;2023-04-25T05:58:31;101057.47;;;-0.86;100.00
55301;BME280;58302;51.446;-2.000;2023-04-25T06:00:57;101067.94;;;-0.85;100.00
55301;BME280;58302;51.446;-2.000;2023-04-25T06:03:23;101066.28;;;-0.86;100.00
55301;BME280;58302;51.446;-2.000;2023-04-25T06:05:49;101067.75;;;-0.83;100.00
55301;BME280;58302;51.446;-2.000;2023-04-25T06:08:16;101061.72;;;-0.77;100.00
55301;BME280;58302;51.446;-2.000;2023-04-25T06:10:42;101062.22;;;-0.73;100.00
55301;BME280;58302;51.446;-2.000;2023-04-25T06:13:08;101067.84;;;-0.68;100.00
55301;BME280;58302;51.446;-2.000;2023-04-25T06:15:33;101058.50;;;-0.64;100.00
55301;BME280;58302;51.446;-2.000;2023-04-25T06:18:00;101055.28;;;-0.60;100.00
55301;BME280;58302;51.446;-2.000;2023-04-25T06:20:26;101063.41;;;-0.53;100.00
55301;BME280;58302;51.446;-2.000;2023-04-25T06:22:52;101054.75;;;-0.32;100.00
55301;BME280;58302;51.446;-2.000;2023-04-25T06:25:18;101054.78;;;-0.17;100.00
55301;BME280;58302;51.446;-2.000;2023-04-25T06:27:44;101049.88;;;0.09;100.00
55301;BME280;58302;51.446;-2.000;2023-04-25T06:30:10;101062.34;;;0.32;100.00
55301;BME280;58302;51.446;-2.000;2023-04-25T06:32:38;101066.59;;;0.41;100.00
55301;BME280;58302;51.446;-2.000;2023-04-25T06:35:04;101068.16;;;0.35;100.00
55301;BME280;58302;51.446;-2.000;2023-04-25T06:37:31;101074.44;;;0.42;100.00
55301;BME280;58302;51.446;-2.000;2023-04-25T06:39:57;101086.50;;;0.53;100.00
55301;BME280;58302;51.446;-2.000;2023-04-25T06:42:22;101087.44;;;0.60;100.00
55301;BME280;58302;51.446;-2.000;2023-04-25T06:44:49;101091.66;;;0.99;100.00
55301;BME280;58302;51.446;-2.000;2023-04-25T06:47:15;101108.03;;;1.62;100.00
55301;BME280;58302;51.446;-2.000;2023-04-25T06:49:41;101109.47;;;2.28;100.00
55301;BME280;58302;51.446;-2.000;2023-04-25T06:52:07;101107.78;;;2.90;100.00
55301;BME280;58302;51.446;-2.000;2023-04-25T06:54:33;101115.03;;;3.37;100.00
55301;BME280;58302;51.446;-2.000;2023-04-25T06:56:59;101113.09;;;3.99;100.00
55301;BME280;58302;51.446;-2.000;2023-04-25T06:59:26;101110.19;;;4.47;100.00
55301;BME280;58302;51.446;-2.000;2023-04-25T07:01:52;101110.94;;;5.00;100.00
55301;BME280;58302;51.446;-2.000;2023-04-25T07:04:18;101111.50;;;5.54;100.00
55301;BME280;58302;51.446;-2.000;2023-04-25T07:06:44;101105.41;;;6.03;100.00
55301;BME280;58302;51.446;-2.000;2023-04-25T07:09:11;101107.50;;;6.51;100.00
55301;BME280;58302;51.446;-2.000;2023-04-25T07:11:37;101094.78;;;6.95;100.00
55301;BME280;58302;51.446;-2.000;2023-04-25T07:14:03;101077.66;;;7.01;100.00
55301;BME280;58302;51.446;-2.000;2023-04-25T07:16:29;101059.00;;;7.30;100.00
55301;BME280;58302;51.446;-2.000;2023-04-25T07:18:55;101030.22;;;7.35;100.00
55301;BME280;58302;51.446;-2.000;2023-04-25T07:21:21;100987.06;;;7.29;100.00
55301;BME280;58302;51.446;-2.000;2023-04-25T07:23:47;100955.47;;;7.41;100.00
55301;BME280;58302;51.446;-2.000;2023-04-25T07:26:13;100937.53;;;7.70;100.00
55301;BME280;58302;51.446;-2.000;2023-04-25T07:28:39;100923.06;;;7.76;100.00
55301;BME280;58302;51.446;-2.000;2023-04-25T07:31:05;100928.59;;;7.70;100.00
55301;BME280;58302;51.446;-2.000;2023-04-25T07:33:31;100930.13;;;7.89;100.00
55301;BME280;58302;51.446;-2.000;2023-04-25T07:35:57;100933.16;;;8.28;100.00
55301;BME280;58302;51.446;-2.000;2023-04-25T07:38:23;100935.41;;;8.19;100.00
55301;BME280;58302;51.446;-2.000;2023-04-25T07:40:49;100931.03;;;8.30;100.00
55301;BME280;58302;51.446;-2.000;2023-04-25T07:43:15;100936.69;;;8.40;100.00
55301;BME280;58302;51.446;-2.000;2023-04-25T07:45:43;100946.66;;;8.51;100.00
55301;BME280;58302;51.446;-2.000;2023-04-25T07:48:10;100936.19;;;8.83;100.00
55301;BME280;58302;51.446;-2.000;2023-04-25T07:50:36;100947.78;;;9.07;100.00
55301;BME280;58302;51.446;-2.000;2023-04-25T07:53:02;100941.34;;;9.42;100.00
55301;BME280;58302;51.446;-2.000;2023-04-25T07:55:29;100940.19;;;9.71;100.00
55301;BME280;58302;51.446;-2.000;2023-04-25T07:57:55;100946.84;;;9.81;100.00
55301;BME280;58302;51.446;-2.000;2023-04-25T08:00:22;100940.84;;;9.79;100.00
55301;BME280;58302;51.446;-2.000;2023-04-25T08:02:48;100942.81;;;10.00;100.00
55301;BME280;58302;51.446;-2.000;2023-04-25T08:05:14;100934.84;;;10.15;100.00
55301;BME280;58302;51.446;-2.000;2023-04-25T08:07:41;100949.09;;;10.39;100.00
55301;BME280;58302;51.446;-2.000;2023-04-25T08:10:07;100955.97;;;10.47;100.00
55301;BME280;58302;51.446;-2.000;2023-04-25T08:12:33;100954.59;;;10.66;100.00
55301;BME280;58302;51.446;-2.000;2023-04-25T08:14:59;100960.16;;;11.03;100.00
55301;BME280;58302;51.446;-2.000;2023-04-25T08:17:25;100953.50;;;11.16;100.00
55301;BME280;58302;51.446;-2.000;2023-04-25T08:19:51;100954.06;;;11.18;100.00
55301;BME280;58302;51.446;-2.000;2023-04-25T08:22:17;100963.09;;;11.24;100.00
55301;BME280;58302;51.446;-2.000;2023-04-25T08:24:43;100958.13;;;11.16;100.00
55301;BME280;58302;51.446;-2.000;2023-04-25T08:27:09;100958.53;;;11.29;100.00
55301;BME280;58302;51.446;-2.000;2023-04-25T08:29:35;100964.38;;;11.43;100.00
55301;BME280;58302;51.446;-2.000;2023-04-25T08:32:01;100969.84;;;11.16;100.00
55301;BME280;58302;51.446;-2.000;2023-04-25T08:34:27;100976.03;;;11.39;100.00
55301;BME280;58302;51.446;-2.000;2023-04-25T08:36:53;100979.31;;;11.14;100.00
55301;BME280;58302;51.446;-2.000;2023-04-25T08:39:19;100972.22;;;10.86;100.00
55301;BME280;58302;51.446;-2.000;2023-04-25T08:41:46;100970.00;;;11.09;100.00
55301;BME280;58302;51.446;-2.000;2023-04-25T08:44:13;100980.91;;;10.88;100.00
55301;BME280;58302;51.446;-2.000;2023-04-25T08:46:40;100982.81;;;10.87;100.00
55301;BME280;58302;51.446;-2.000;2023-04-25T08:49:07;100982.13;;;10.97;100.00
55301;BME280;58302;51.446;-2.000;2023-04-25T08:51:36;100987.38;;;11.03;100.00
55301;BME280;58302;51.446;-2.000;2023-04-25T08:54:11;100982.25;;;11.07;100.00
55301;BME280;58302;51.446;-2.000;2023-04-25T08:56:45;100985.75;;;10.80;100.00
55301;BME280;58302;51.446;-2.000;2023-04-25T08:59:13;100983.19;;;11.18;100.00
55301;BME280;58302;51.446;-2.000;2023-04-25T09:01:42;100977.03;;;11.27;100.00
55301;BME280;58302;51.446;-2.000;2023-04-25T09:04:08;100977.56;;;11.02;100.00
55301;BME280;58302;51.446;-2.000;2023-04-25T09:06:35;100975.94;;;11.28;100.00
55301;BME280;58302;51.446;-2.000;2023-04-25T09:09:05;100982.03;;;11.41;100.00
55301;BME280;58302;51.446;-2.000;2023-04-25T09:11:32;100971.66;;;11.70;100.00
55301;BME280;58302;51.446;-2.000;2023-04-25T09:19:29;100989.91;;;13.06;100.00
55301;BME280;58302;51.446;-2.000;2023-04-25T09:21:57;100990.81;;;13.22;100.00
55301;BME280;58302;51.446;-2.000;2023-04-25T09:27:09;100999.88;;;13.58;100.00
55301;BME280;58302;51.446;-2.000;2023-04-25T09:29:38;100994.69;;;14.08;100.00
55301;BME280;58302;51.446;-2.000;2023-04-25T09:34:39;100991.69;;;13.48;100.00
55301;BME280;58302;51.446;-2.000;2023-04-25T09:37:08;100985.84;;;13.14;100.00
55301;BME280;58302;51.446;-2.000;2023-04-25T09:39:34;100988.69;;;13.55;100.00
55301;BME280;58302;51.446;-2.000;2023-04-25T09:42:00;100995.50;;;13.73;100.00
55301;BME280;58302;51.446;-2.000;2023-04-25T09:44:28;100994.69;;;13.97;99.47
55301;BME280;58302;51.446;-2.000;2023-04-25T09:46:54;100985.13;;;13.59;98.18
55301;BME280;58302;51.446;-2.000;2023-04-25T09:49:20;100988.91;;;13.33;100.00
55301;BME280;58302;51.446;-2.000;2023-04-25T09:51:57;100991.41;;;13.50;100.00
55301;BME280;58302;51.446;-2.000;2023-04-25T09:54:26;100988.41;;;13.66;100.00
55301;BME280;58302;51.446;-2.000;2023-04-25T09:56:53;100993.06;;;13.76;100.00
55301;BME280;58302;51.446;-2.000;2023-04-25T09:59:20;100983.19;;;14.16;100.00
55301;BME280;58302;51.446;-2.000;2023-04-25T10:01:49;100983.13;;;14.46;97.33
55301;BME280;58302;51.446;-2.000;2023-04-25T10:04:21;100982.50;;;14.80;86.00
55301;BME280;58302;51.446;-2.000;2023-04-25T10:06:49;100985.06;;;14.51;89.09
55301;BME280;58302;51.446;-2.000;2023-04-25T10:09:16;100983.13;;;14.46;90.00
55301;BME280;58302;51.446;-2.000;2023-04-25T10:11:46;100987.19;;;14.69;84.52
55301;BME280;58302;51.446;-2.000;2023-04-25T10:14:13;100992.69;;;14.59;83.11
55301;BME280;58302;51.446;-2.000;2023-04-25T10:16:41;100984.22;;;14.56;82.63
55301;BME280;58302;51.446;-2.000;2023-04-25T10:19:07;100983.34;;;14.70;84.92
55301;BME280;58302;51.446;-2.000;2023-04-25T10:21:34;100990.59;;;15.06;85.11
55301;BME280;58302;51.446;-2.000;2023-04-25T10:24:01;100988.25;;;15.28;77.07
55301;BME280;58302;51.446;-2.000;2023-04-25T10:26:27;100989.91;;;15.29;75.67
55301;BME280;58302;51.446;-2.000;2023-04-25T10:29:01;100990.97;;;15.33;74.68
55301;BME280;58302;51.446;-2.000;2023-04-25T10:31:30;101002.53;;;15.20;75.61
55301;BME280;58302;51.446;-2.000;2023-04-25T10:33:56;100998.53;;;15.46;69.87
55301;BME280;58302;51.446;-2.000;2023-04-25T10:36:23;100993.09;;;14.97;72.79
55301;BME280;58302;51.446;-2.000;2023-04-25T10:38:51;101002.41;;;15.45;68.47
55301;BME280;58302;51.446;-2.000;2023-04-25T10:41:18;101001.88;;;15.83;65.64
55301;BME280;58302;51.446;-2.000;2023-04-25T10:43:46;100994.44;;;16.17;61.85
55301;BME280;58302;51.446;-2.000;2023-04-25T10:46:16;100990.88;;;16.65;57.61
55301;BME280;58302;51.446;-2.000;2023-04-25T10:48:50;100992.00;;;16.64;55.79
55301;BME280;58302;51.446;-2.000;2023-04-25T10:51:21;100983.16;;;16.72;54.28
55301;BME280;58302;51.446;-2.000;2023-04-25T10:56:32;100995.56;;;16.64;60.87
55301;BME280;58302;51.446;-2.000;2023-04-25T10:59:10;100988.25;;;17.02;56.12
55301;BME280;58302;51.446;-2.000;2023-04-25T11:01:42;100987.06;;;17.08;55.42
55301;BME280;58302;51.446;-2.000;2023-04-25T11:04:29;100990.66;;;17.28;54.44
55301;BME280;58302;51.446;-2.000;2023-04-25T11:09:28;100993.06;;;17.67;50.67
55301;BME280;58302;51.446;-2.000;2023-04-25T11:11:58;100994.69;;;17.68;51.59
55301;BME280;58302;51.446;-2.000;2023-04-25T11:14:25;100993.28;;;17.71;54.03
55301;BME280;58302;51.446;-2.000;2023-04-25T11:16:55;100988.63;;;17.33;50.92
55301;BME280;58302;51.446;-2.000;2023-04-25T11:19:22;101003.53;;;17.08;49.67
55301;BME280;58302;51.446;-2.000;2023-04-25T11:21:49;100983.56;;;16.84;48.43
55301;BME280;58302;51.446;-2.000;2023-04-25T11:24:18;100991.53;;;16.56;52.73
55301;BME280;58302;51.446;-2.000;2023-04-25T11:26:46;100985.47;;;16.59;51.83
55301;BME280;58302;51.446;-2.000;2023-04-25T11:29:13;100994.31;;;16.27;53.48
55301;BME280;58302;51.446;-2.000;2023-04-25T11:31:43;100994.13;;;16.19;52.60
55301;BME280;58302;51.446;-2.000;2023-04-25T11:34:11;100992.84;;;15.38;53.14
55301;BME280;58302;51.446;-2.000;2023-04-25T11:36:38;100996.56;;;14.48;55.97
55301;BME280;58302;51.446;-2.000;2023-04-25T11:39:04;100993.00;;;14.32;58.86
55301;BME280;58302;51.446;-2.000;2023-04-25T11:41:31;100989.22;;;14.08;61.66
55301;BME280;58302;51.446;-2.000;2023-04-25T11:43:57;100984.00;;;14.21;57.79
55301;BME280;58302;51.446;-2.000;2023-04-25T11:46:23;100980.91;;;14.64;60.00
55301;BME280;58302;51.446;-2.000;2023-04-25T11:48:50;100993.28;;;15.11;58.49
55301;BME280;58302;51.446;-2.000;2023-04-25T11:51:16;100996.75;;;15.71;55.43
55301;BME280;58302;51.446;-2.000;2023-04-25T11:53:44;101008.28;;;16.02;55.69
55301;BME280;58302;51.446;-2.000;2023-04-25T11:56:10;100991.03;;;16.25;51.71
55301;BME280;58302;51.446;-2.000;2023-04-25T11:58:59;100998.50;;;15.91;50.54
55301;BME280;58302;51.446;-2.000;2023-04-25T12:01:28;100991.19;;;16.63;53.89
55301;BME280;58302;51.446;-2.000;2023-04-25T12:03:54;100987.56;;;16.92;49.89
55301;BME280;58302;51.446;-2.000;2023-04-25T12:06:20;100997.31;;;17.22;49.22
55301;BME280;58302;51.446;-2.000;2023-04-25T12:09:06;101002.50;;;17.80;47.47
55301;BME280;58302;51.446;-2.000;2023-04-25T12:11:32;101002.53;;;18.26;43.94
55301;BME280;58302;51.446;-2.000;2023-04-25T12:14:03;100989.53;;;18.73;44.77
55301;BME280;58302;51.446;-2.000;2023-04-25T12:16:43;100994.72;;;18.61;43.95
55301;BME280;58302;51.446;-2.000;2023-04-25T12:19:09;100994.34;;;18.81;43.99
55301;BME280;58302;51.446;-2.000;2023-04-25T12:21:36;100993.94;;;18.74;44.01
55301;BME280;58302;51.446;-2.000;2023-04-25T12:24:17;101000.84;;;17.98;47.31
55301;BME280;58302;51.446;-2.000;2023-04-25T12:29:26;101005.06;;;17.20;46.80
55301;BME280;58302;51.446;-2.000;2023-04-25T12:31:54;101017.34;;;16.55;48.63
55301;BME280;58302;51.446;-2.000;2023-04-25T12:34:21;101016.31;;;16.75;48.33
55301;BME280;58302;51.446;-2.000;2023-04-25T12:36:48;101010.63;;;17.33;44.69
55301;BME280;58302;51.446;-2.000;2023-04-25T12:39:22;101009.56;;;18.19;43.03
55301;BME280;58302;51.446;-2.000;2023-04-25T12:41:50;101004.50;;;19.08;41.01
55301;BME280;58302;51.446;-2.000;2023-04-25T12:44:16;101010.22;;;19.48;40.80
55301;BME280;58302;51.446;-2.000;2023-04-25T12:46:43;101009.03;;;19.40;42.01
55301;BME280;58302;51.446;-2.000;2023-04-25T12:49:10;101013.25;;;19.24;42.58
55301;BME280;58302;51.446;-2.000;2023-04-25T12:51:37;101017.13;;;18.27;42.38
55301;BME280;58302;51.446;-2.000;2023-04-25T12:54:05;101015.28;;;17.71;41.56